createdAt,value
2022-10-23T00:04:57.112Z,98029.03
2022-10-23T00:09:58.339Z,98031.19
2022-10-23T00:14:59.887Z,98024.34
2022-10-23T00:20:01.122Z,98028.72
2022-10-23T00:25:02.344Z,98025.53
2022-10-23T00:30:03.607Z,98033.88
2022-10-23T00:35:04.817Z,98033.47
2022-10-23T00:40:06.542Z,98029.25
2022-10-23T00:45:07.813Z,98018.16
2022-10-23T00:50:09.041Z,98031.09
2022-10-23T00:55:10.314Z,98027.28
2022-10-23T01:00:11.523Z,98033.16
2022-10-23T01:05:12.767Z,98044.06
2022-10-23T01:10:14.007Z,98031.19
2022-10-23T01:15:15.265Z,98026.19
2022-10-23T01:20:16.707Z,98014.16
2022-10-23T01:25:17.947Z,98026.88
2022-10-23T01:30:19.162Z,98016.16
2022-10-23T01:35:20.381Z,98011.88
2022-10-23T01:40:21.597Z,98007.19
2022-10-23T01:45:22.909Z,97994.06
2022-10-23T01:50:24.134Z,98003.00
2022-10-23T01:55:25.331Z,98001.38
2022-10-23T02:00:26.543Z,98000.69
2022-10-23T02:05:27.764Z,97996.47
2022-10-23T02:10:28.968Z,98002.59
2022-10-23T02:15:30.188Z,97985.50
2022-10-23T02:20:31.467Z,97987.56
2022-10-23T02:25:32.670Z,97987.59
2022-10-23T02:30:34.797Z,97984.72
2022-10-23T02:35:36.339Z,97996.06
2022-10-23T02:40:37.958Z,97990.72
2022-10-23T02:50:40.826Z,97974.97
2022-10-23T02:55:42.350Z,97979.31
2022-10-23T03:00:43.925Z,97972.47
2022-10-23T03:05:45.647Z,97949.75
2022-10-23T03:15:48.527Z,97945.00
2022-10-23T03:20:49.869Z,97943.03
2022-10-23T03:25:51.368Z,97956.38
2022-10-23T03:30:53.370Z,97970.13
2022-10-23T03:35:55.097Z,97967.56
2022-10-23T03:40:56.800Z,97967.47
2022-10-23T03:45:58.377Z,97969.13
2022-10-23T03:50:59.887Z,97965.94
2022-10-23T03:56:01.704Z,97957.53
2022-10-23T04:01:03.327Z,97946.13
2022-10-23T04:06:05.058Z,97951.44
2022-10-23T04:11:12.733Z,97945.19
2022-10-23T04:16:14.648Z,97952.09
2022-10-23T04:21:16.118Z,97938.88
2022-10-23T04:26:17.361Z,97946.53
2022-10-23T04:31:18.609Z,97949.97
2022-10-23T04:36:19.954Z,97939.19
2022-10-23T04:41:21.364Z,97934.44
2022-10-23T04:46:22.648Z,97939.91
2022-10-23T04:51:23.915Z,97950.13
2022-10-23T04:56:25.214Z,97940.94
2022-10-23T05:01:26.533Z,97939.72
2022-10-23T05:06:27.858Z,97947.66
2022-10-23T05:11:29.080Z,97935.63
2022-10-23T05:16:30.454Z,97933.28
2022-10-23T05:21:31.912Z,97932.91
2022-10-23T05:26:33.339Z,97924.38
2022-10-23T05:31:34.625Z,97922.91
2022-10-23T05:36:36.025Z,97930.25
2022-10-23T05:41:37.531Z,97931.41
2022-10-23T05:46:38.917Z,97928.19
2022-10-23T05:51:40.434Z,97935.03
2022-10-23T05:56:41.939Z,97927.47
2022-10-23T06:01:43.478Z,97922.16
2022-10-23T06:06:45.131Z,97931.91
2022-10-23T06:11:46.727Z,97936.06
2022-10-23T06:16:48.623Z,97931.38
2022-10-23T06:21:50.346Z,97929.16
2022-10-23T06:26:53.843Z,97944.44
2022-10-23T06:31:55.869Z,97950.69
2022-10-23T06:36:58.123Z,97957.72
2022-10-23T06:41:59.998Z,97954.84
2022-10-23T06:47:02.799Z,97954.00
2022-10-23T06:52:04.482Z,97947.28
2022-10-23T06:57:06.368Z,97945.03
2022-10-23T07:02:08.082Z,97948.09
2022-10-23T07:07:13.267Z,97958.44
2022-10-23T07:12:15.464Z,97971.00
2022-10-23T07:17:17.238Z,97948.31
2022-10-23T07:22:19.187Z,97946.41
2022-10-23T07:27:20.956Z,97962.22
2022-10-23T07:32:24.335Z,97952.38
2022-10-23T07:37:26.104Z,97965.69
2022-10-23T07:42:27.926Z,97961.63
2022-10-23T07:47:30.191Z,97955.72
2022-10-23T07:52:35.083Z,97962.38
2022-10-23T07:57:38.176Z,97958.78
2022-10-23T08:02:40.021Z,97950.97
2022-10-23T08:07:42.095Z,97940.00
2022-10-23T08:12:43.535Z,97936.72
2022-10-23T08:17:45.144Z,97932.47
2022-10-23T08:22:46.856Z,97930.97
2022-10-23T08:27:50.365Z,97921.88
2022-10-23T08:32:52.521Z,97934.09
2022-10-23T08:37:53.768Z,97920.72
2022-10-23T08:42:55.006Z,97930.84
2022-10-23T08:47:57.425Z,97944.13
2022-10-23T08:52:58.787Z,97933.75
2022-10-23T08:58:00.033Z,97930.25
2022-10-23T09:03:01.223Z,97930.44
2022-10-23T09:08:02.504Z,97924.03
2022-10-23T09:13:03.964Z,97926.63
2022-10-23T09:18:06.808Z,97917.16
2022-10-23T09:23:08.147Z,97920.25
2022-10-23T09:33:28.169Z,97918.03
2022-10-23T09:38:29.481Z,97910.81
2022-10-23T09:43:30.869Z,97912.13
2022-10-23T09:48:32.183Z,97904.13
2022-10-23T09:53:33.403Z,97905.97
2022-10-23T09:58:34.744Z,97895.91
2022-10-23T10:03:36.021Z,97890.31
2022-10-23T10:08:37.644Z,97887.28
2022-10-23T10:13:39.546Z,97877.22
2022-10-23T10:18:40.887Z,97873.50
2022-10-23T10:23:42.263Z,97868.97
2022-10-23T10:28:43.587Z,97861.03
2022-10-23T10:33:44.799Z,97851.59
2022-10-23T10:38:46.061Z,97838.75
2022-10-23T10:43:47.278Z,97837.34
2022-10-23T10:48:48.538Z,97826.75
2022-10-23T10:53:49.799Z,97821.75
2022-10-23T10:58:51.041Z,97796.28
2022-10-23T11:03:52.281Z,97778.44
2022-10-23T11:08:57.915Z,97776.84
2022-10-23T11:14:10.418Z,97771.50
2022-10-23T11:19:14.088Z,97762.34
2022-10-23T11:24:15.586Z,97750.41
2022-10-23T11:29:18.867Z,97750.44
2022-10-23T11:34:20.098Z,97748.88
2022-10-23T11:39:21.343Z,97751.69
2022-10-23T11:44:22.555Z,97740.59
2022-10-23T11:49:24.147Z,97734.81
2022-10-23T11:54:27.095Z,97704.59
2022-10-23T11:59:28.421Z,97671.22
2022-10-23T12:04:29.931Z,97658.34
2022-10-23T12:09:31.276Z,97648.03
2022-10-23T12:14:32.587Z,97632.72
2022-10-23T12:19:33.867Z,97623.81
2022-10-23T12:24:39.597Z,97615.09
2022-10-23T12:29:41.837Z,97612.06
2022-10-23T12:34:43.057Z,97614.34
2022-10-23T12:39:44.382Z,97617.78
2022-10-23T12:44:45.573Z,97598.38
2022-10-23T12:49:46.790Z,97594.38
2022-10-23T12:54:50.623Z,97587.34
2022-10-23T12:59:51.831Z,97574.47
2022-10-23T13:04:53.064Z,97557.16
2022-10-23T13:09:54.331Z,97535.94
2022-10-23T13:14:55.572Z,97527.25
2022-10-23T13:19:56.796Z,97530.88
2022-10-23T13:24:58.148Z,97518.53
2022-10-23T13:29:59.397Z,97525.72
2022-10-23T13:35:20.811Z,97527.66
2022-10-23T13:40:23.592Z,97523.00
2022-10-23T13:45:24.843Z,97512.97
2022-10-23T13:50:26.046Z,97516.53
2022-10-23T13:55:28.278Z,97514.97
2022-10-23T14:00:29.502Z,97514.47
2022-10-23T14:05:30.779Z,97522.13
2022-10-23T14:10:31.982Z,97517.75
2022-10-23T14:15:33.215Z,97521.56
2022-10-23T14:20:34.564Z,97525.81
2022-10-23T14:25:35.812Z,97527.72
2022-10-23T14:30:37.458Z,97532.63
2022-10-23T14:35:38.666Z,97529.53
2022-10-23T14:40:39.872Z,97542.09
2022-10-23T14:45:41.140Z,97525.75
2022-10-23T14:50:42.359Z,97509.63
2022-10-23T14:55:43.586Z,97515.22
2022-10-23T15:00:44.791Z,97503.63
2022-10-23T15:05:45.993Z,97509.06
2022-10-23T15:10:47.211Z,97490.66
2022-10-23T15:15:48.441Z,97503.44
2022-10-23T15:20:49.640Z,97497.81
2022-10-23T15:25:50.847Z,97495.59
2022-10-23T15:30:52.060Z,97492.06
2022-10-23T15:35:53.294Z,97490.75
2022-10-23T15:40:54.547Z,97484.31
2022-10-23T15:45:55.857Z,97495.28
2022-10-23T15:50:57.199Z,97488.75
2022-10-23T15:55:58.836Z,97483.13
2022-10-23T16:01:02.964Z,97487.81
2022-10-23T16:06:04.267Z,97484.81
2022-10-23T16:11:05.527Z,97488.75
2022-10-23T16:16:06.740Z,97479.94
2022-10-23T16:21:07.970Z,97482.56
2022-10-23T16:26:09.433Z,97475.38
2022-10-23T16:31:10.688Z,97486.03
2022-10-23T16:36:11.899Z,97499.44
2022-10-23T16:41:13.120Z,97498.19
2022-10-23T16:46:14.367Z,97502.38
2022-10-23T16:51:15.584Z,97494.72
2022-10-23T16:56:16.836Z,97488.44
2022-10-23T17:01:18.124Z,97488.78
2022-10-23T17:06:19.443Z,97503.72
2022-10-23T17:11:20.649Z,97502.56
2022-10-23T17:16:21.991Z,97512.09
2022-10-23T17:21:23.239Z,97519.03
2022-10-23T17:26:24.499Z,97511.69
2022-10-23T17:31:25.715Z,97506.25
2022-10-23T17:36:26.929Z,97500.91
2022-10-23T17:41:28.126Z,97502.06
2022-10-23T17:46:29.357Z,97490.34
2022-10-23T17:51:30.579Z,97489.81
2022-10-23T17:56:31.783Z,97500.41
2022-10-23T18:01:33.142Z,97502.84
2022-10-23T18:06:34.432Z,97505.91
2022-10-23T18:11:35.662Z,97508.25
2022-10-23T18:16:37.195Z,97501.66
2022-10-23T18:21:40.051Z,97513.16
2022-10-23T18:26:41.278Z,97499.09
2022-10-23T18:31:42.489Z,97498.69
2022-10-23T18:36:43.770Z,97522.38
2022-10-23T18:41:45.041Z,97530.09
2022-10-23T18:46:46.258Z,97518.16
2022-10-23T18:51:49.715Z,97511.75
2022-10-23T18:56:51.018Z,97529.66
2022-10-23T19:01:52.496Z,97480.94
2022-10-23T19:06:53.891Z,97462.81
2022-10-23T19:11:55.154Z,97462.84
2022-10-23T19:16:56.366Z,97462.22
2022-10-23T19:21:57.631Z,97451.16
2022-10-23T19:26:58.841Z,97438.59
2022-10-23T19:32:00.123Z,97437.19
2022-10-23T19:37:01.428Z,97423.03
2022-10-23T19:42:02.839Z,97424.94
2022-10-23T19:47:04.261Z,97438.94
2022-10-23T19:52:05.488Z,97444.25
2022-10-23T19:57:06.761Z,97468.44
2022-10-23T20:02:08.186Z,97464.16
2022-10-23T20:07:09.684Z,97467.03
2022-10-23T20:12:11.139Z,97479.50
2022-10-23T20:17:12.509Z,97491.91
2022-10-23T20:22:13.780Z,97497.00
2022-10-23T20:27:15.228Z,97501.28
2022-10-23T20:32:16.791Z,97520.88
2022-10-23T20:37:18.072Z,97515.09
2022-10-23T20:42:19.317Z,97529.03
2022-10-23T20:47:20.607Z,97554.09
2022-10-23T20:52:25.068Z,97554.28
2022-10-23T20:57:26.302Z,97550.38
2022-10-23T21:02:27.606Z,97562.56
2022-10-23T21:07:28.978Z,97566.56
2022-10-23T21:12:30.267Z,97569.91
2022-10-23T21:17:35.345Z,97570.16
2022-10-23T21:22:37.194Z,97570.66
2022-10-23T21:27:38.522Z,97567.41
2022-10-23T21:32:40.327Z,97580.56
2022-10-23T21:37:41.650Z,97602.75
2022-10-23T21:42:43.117Z,97608.69
2022-10-23T21:47:44.532Z,97620.31
2022-10-23T21:52:46.339Z,97629.63
2022-10-23T21:57:47.814Z,97652.19
2022-10-23T22:02:49.199Z,97632.41
2022-10-23T22:07:50.572Z,97621.97
2022-10-23T22:12:51.992Z,97630.44
2022-10-23T22:17:53.264Z,97618.81
2022-10-23T22:22:54.498Z,97606.72
2022-10-23T22:27:55.746Z,97612.91
2022-10-23T22:32:57.033Z,97627.56
2022-10-23T22:37:58.821Z,97643.47
2022-10-23T22:43:00.179Z,97653.00
2022-10-23T22:48:01.433Z,97667.94
2022-10-23T22:53:02.704Z,97682.81
2022-10-23T22:58:04.054Z,97688.69
2022-10-23T23:03:05.357Z,97711.13
2022-10-23T23:08:06.628Z,97715.13
2022-10-23T23:13:07.859Z,97727.47
2022-10-23T23:18:09.204Z,97732.31
2022-10-23T23:23:11.726Z,97742.28
2022-10-23T23:28:12.975Z,97746.56
2022-10-23T23:33:14.204Z,97758.28
2022-10-23T23:38:15.653Z,97758.16
2022-10-23T23:43:16.914Z,97760.25
2022-10-23T23:48:18.144Z,97775.22
2022-10-23T23:53:19.433Z,97778.16
2022-10-23T23:58:20.644Z,97806.72
